createdAt,value
2023-01-07T00:01:32.547Z,100674.88
2023-01-07T00:04:00.889Z,100676.66
2023-01-07T00:06:35.836Z,100674.09
2023-01-07T00:09:04.410Z,100679.47
2023-01-07T00:11:34.127Z,100678.53
2023-01-07T00:14:01.131Z,100682.06
2023-01-07T00:16:30.136Z,100682.06
2023-01-07T00:18:59.003Z,100683.28
2023-01-07T00:21:26.943Z,100682.13
2023-01-07T00:23:58.315Z,100682.34
2023-01-07T00:26:27.436Z,100677.59
2023-01-07T00:28:54.365Z,100668.06
2023-01-07T00:31:23.285Z,100674.19
2023-01-07T00:33:59.522Z,100682.69
2023-01-07T00:36:28.025Z,100676.09
2023-01-07T00:38:56.890Z,100666.47
2023-01-07T00:41:23.731Z,100669.78
2023-01-07T00:43:50.288Z,100658.28
2023-01-07T00:46:16.880Z,100651.31
2023-01-07T00:48:44.841Z,100651.47
2023-01-07T00:51:13.261Z,100650.59
2023-01-07T00:53:39.766Z,100650.63
2023-01-07T00:56:06.417Z,100642.72
2023-01-07T00:58:32.911Z,100639.84
2023-01-07T01:01:01.360Z,100640.91
2023-01-07T01:03:29.311Z,100634.75
2023-01-07T01:06:01.538Z,100633.69
2023-01-07T01:08:27.930Z,100630.25
2023-01-07T01:10:54.316Z,100621.94
2023-01-07T01:13:20.722Z,100624.09
2023-01-07T01:15:48.955Z,100630.25
2023-01-07T01:18:15.739Z,100630.44
2023-01-07T01:20:42.618Z,100632.31
2023-01-07T01:23:09.213Z,100635.84
2023-01-07T01:25:35.715Z,100630.44
2023-01-07T01:28:02.458Z,100628.81
2023-01-07T01:30:28.873Z,100626.81
2023-01-07T01:32:55.311Z,100626.03
2023-01-07T01:35:21.693Z,100626.06
2023-01-07T01:37:48.124Z,100627.06
2023-01-07T01:40:14.909Z,100626.31
2023-01-07T01:42:41.284Z,100627.06
2023-01-07T01:45:08.072Z,100630.41
2023-01-07T01:47:49.491Z,100627.31
2023-01-07T01:50:26.224Z,100620.06
2023-01-07T01:52:52.604Z,100620.94
2023-01-07T01:55:24.039Z,100615.34
2023-01-07T01:57:55.193Z,100608.41
2023-01-07T02:00:21.695Z,100614.78
2023-01-07T02:02:52.493Z,100614.78
2023-01-07T02:05:19.106Z,100613.72
2023-01-07T02:07:45.461Z,100602.56
2023-01-07T02:10:14.504Z,100607.69
2023-01-07T02:12:46.812Z,100605.19
2023-01-07T02:15:44.926Z,100601.63
2023-01-07T02:18:20.072Z,100597.22
2023-01-07T02:21:04.694Z,100595.56
2023-01-07T02:24:08.857Z,100593.75
2023-01-07T02:27:12.537Z,100591.19
2023-01-07T02:30:14.577Z,100599.22
2023-01-07T02:33:10.486Z,100590.38
2023-01-07T02:35:47.027Z,100584.53
2023-01-07T02:38:34.496Z,100587.97
2023-01-07T02:41:28.942Z,100578.56
2023-01-07T02:44:05.037Z,100578.03
2023-01-07T02:46:40.163Z,100575.31
2023-01-07T02:49:11.553Z,100571.69
2023-01-07T02:51:40.652Z,100568.91
2023-01-07T02:54:12.626Z,100569.00
2023-01-07T02:56:57.360Z,100574.25
2023-01-07T02:59:41.554Z,100564.44
2023-01-07T03:02:25.992Z,100566.16
2023-01-07T03:05:15.462Z,100564.44
2023-01-07T03:07:50.593Z,100557.47
2023-01-07T03:10:27.050Z,100566.34
2023-01-07T03:13:07.355Z,100549.59
2023-01-07T03:15:41.716Z,100559.44
2023-01-07T03:18:14.600Z,100553.34
2023-01-07T03:20:44.114Z,100552.44
2023-01-07T03:23:13.865Z,100550.59
2023-01-07T03:25:46.484Z,100539.34
2023-01-07T03:28:17.678Z,100541.22
2023-01-07T03:30:46.747Z,100542.28
2023-01-07T03:33:37.126Z,100544.00
2023-01-07T03:36:05.078Z,100540.59
2023-01-07T03:38:33.945Z,100540.59
2023-01-07T03:41:00.358Z,100534.00
2023-01-07T03:43:26.826Z,100533.16
2023-01-07T03:45:54.166Z,100532.28
2023-01-07T03:48:20.575Z,100534.88
2023-01-07T03:50:46.948Z,100530.31
2023-01-07T03:53:13.415Z,100525.88
2023-01-07T03:55:39.829Z,100526.81
2023-01-07T03:58:07.099Z,100521.56
2023-01-07T04:00:33.524Z,100515.78
2023-01-07T04:03:00.316Z,100517.66
2023-01-07T04:05:26.845Z,100513.00
2023-01-07T04:07:53.229Z,100505.19
2023-01-07T04:10:20.494Z,100508.72
2023-01-07T04:12:46.963Z,100507.81
2023-01-07T04:15:13.335Z,100506.97
2023-01-07T04:17:39.748Z,100509.63
2023-01-07T04:20:07.895Z,100502.66
2023-01-07T04:22:34.488Z,100501.69
2023-01-07T04:25:00.913Z,100497.03
2023-01-07T04:27:27.383Z,100490.88
2023-01-07T04:29:53.746Z,100495.66
2023-01-07T04:32:20.097Z,100476.84
2023-01-07T04:34:46.454Z,100468.09
2023-01-07T04:37:12.811Z,100455.09
2023-01-07T04:39:39.264Z,100462.00
2023-01-07T04:42:05.742Z,100460.97
2023-01-07T04:44:32.216Z,100460.84
2023-01-07T04:46:58.602Z,100468.28
2023-01-07T04:49:25.195Z,100469.13
2023-01-07T04:51:51.664Z,100468.84
2023-01-07T04:54:18.017Z,100459.06
2023-01-07T04:56:44.403Z,100451.22
2023-01-07T04:59:10.813Z,100451.22
2023-01-07T05:01:37.378Z,100449.53
2023-01-07T05:04:04.184Z,100462.94
2023-01-07T05:06:30.619Z,100448.63
2023-01-07T05:08:57.169Z,100448.06
2023-01-07T05:11:23.607Z,100452.66
2023-01-07T05:13:50.080Z,100442.88
2023-01-07T05:16:17.039Z,100443.75
2023-01-07T05:18:43.577Z,100438.41
2023-01-07T05:21:12.809Z,100432.13
2023-01-07T05:23:39.271Z,100437.63
2023-01-07T05:26:05.964Z,100433.09
2023-01-07T05:28:32.322Z,100420.84
2023-01-07T05:30:58.816Z,100424.38
2023-01-07T05:33:25.265Z,100423.63
2023-01-07T05:35:51.661Z,100429.97
2023-01-07T05:38:18.128Z,100417.94
2023-01-07T05:40:49.800Z,100415.38
2023-01-07T05:43:17.195Z,100417.25
2023-01-07T05:45:46.943Z,100417.97
2023-01-07T05:48:13.886Z,100411.88
2023-01-07T05:50:40.318Z,100422.19
2023-01-07T05:53:07.123Z,100407.47
2023-01-07T05:55:33.611Z,100415.00
2023-01-07T05:58:00.029Z,100412.56
2023-01-07T06:00:26.445Z,100408.28
2023-01-07T06:02:52.950Z,100405.69
2023-01-07T06:05:19.386Z,100405.75
2023-01-07T06:07:45.956Z,100400.69
2023-01-07T06:10:12.362Z,100397.69
2023-01-07T06:12:38.881Z,100406.53
2023-01-07T06:15:07.219Z,100398.75
2023-01-07T06:17:33.988Z,100399.38
2023-01-07T06:20:00.585Z,100396.22
2023-01-07T06:22:26.974Z,100393.44
2023-01-07T06:24:53.332Z,100389.84
2023-01-07T06:27:19.710Z,100391.56
2023-01-07T06:29:46.111Z,100392.38
2023-01-07T06:32:12.498Z,100389.63
2023-01-07T06:34:38.844Z,100381.84
2023-01-07T06:37:05.798Z,100372.78
2023-01-07T06:39:32.213Z,100382.75
2023-01-07T06:41:58.644Z,100379.00
2023-01-07T06:44:25.171Z,100373.78
2023-01-07T06:46:51.583Z,100374.38
2023-01-07T06:49:17.944Z,100366.50
2023-01-07T06:51:44.350Z,100362.97
2023-01-07T06:54:10.937Z,100355.97
2023-01-07T06:56:37.325Z,100349.78
2023-01-07T06:59:03.756Z,100342.09
2023-01-07T07:01:30.298Z,100339.41
2023-01-07T07:03:57.021Z,100342.41
2023-01-07T07:06:23.407Z,100353.84
2023-01-07T07:08:49.817Z,100341.31
2023-01-07T07:11:16.262Z,100338.03
2023-01-07T07:13:42.613Z,100340.25
2023-01-07T07:16:09.061Z,100337.78
2023-01-07T07:18:35.526Z,100329.72
2023-01-07T07:21:01.922Z,100328.44
2023-01-07T07:23:28.341Z,100334.47
2023-01-07T07:25:54.748Z,100326.03
2023-01-07T07:28:21.190Z,100327.63
2023-01-07T07:30:48.405Z,100326.47
2023-01-07T07:33:15.729Z,100320.91
2023-01-07T07:35:42.359Z,100326.09
2023-01-07T07:38:08.966Z,100324.25
2023-01-07T07:40:35.536Z,100326.91
2023-01-07T07:43:10.666Z,100320.91
2023-01-07T07:45:42.405Z,100314.19
2023-01-07T07:48:10.346Z,100315.69
2023-01-07T07:50:37.040Z,100315.81
2023-01-07T07:53:04.210Z,100313.97
2023-01-07T07:55:30.865Z,100312.22
2023-01-07T07:57:58.363Z,100307.81
2023-01-07T08:00:25.154Z,100304.31
2023-01-07T08:02:51.612Z,100306.00
2023-01-07T08:05:18.055Z,100307.72
2023-01-07T08:07:44.500Z,100305.59
2023-01-07T08:10:11.057Z,100307.44
2023-01-07T08:12:38.460Z,100312.53
2023-01-07T08:15:06.418Z,100303.28
2023-01-07T08:17:32.984Z,100297.13
2023-01-07T08:19:59.504Z,100293.78
2023-01-07T08:22:25.933Z,100285.63
2023-01-07T08:24:52.269Z,100282.72
2023-01-07T08:27:18.728Z,100284.47
2023-01-07T08:29:45.155Z,100276.22
2023-01-07T08:32:11.554Z,100275.63
2023-01-07T08:34:37.952Z,100266.59
2023-01-07T08:37:04.367Z,100269.44
2023-01-07T08:39:30.744Z,100264.38
2023-01-07T08:41:57.202Z,100262.25
2023-01-07T08:44:23.610Z,100251.97
2023-01-07T08:46:50.064Z,100253.66
2023-01-07T08:49:16.513Z,100253.13
2023-01-07T08:51:42.853Z,100254.28
2023-01-07T08:54:09.248Z,100248.94
2023-01-07T08:56:35.644Z,100236.22
2023-01-07T08:59:02.066Z,100238.25
2023-01-07T09:01:28.519Z,100220.47
2023-01-07T09:03:54.953Z,100222.00
2023-01-07T09:06:22.095Z,100230.84
2023-01-07T09:08:48.992Z,100222.09
2023-01-07T09:11:15.584Z,100217.66
2023-01-07T09:13:42.364Z,100213.75
2023-01-07T09:16:08.863Z,100225.69
2023-01-07T09:18:35.390Z,100210.47
2023-01-07T09:21:01.821Z,100215.63
2023-01-07T09:23:28.297Z,100210.56
2023-01-07T09:25:54.687Z,100201.50
2023-01-07T09:28:21.089Z,100208.50
2023-01-07T09:30:47.485Z,100207.34
2023-01-07T09:33:13.902Z,100217.19
2023-01-07T09:35:40.250Z,100212.06
2023-01-07T09:38:06.622Z,100220.56
2023-01-07T09:40:38.592Z,100209.31
2023-01-07T09:43:13.986Z,100215.13
2023-01-07T09:46:01.358Z,100221.59
2023-01-07T09:48:40.462Z,100220.84
2023-01-07T09:51:16.017Z,100212.91
2023-01-07T09:53:47.549Z,100214.81
2023-01-07T09:56:33.855Z,100211.50
2023-01-07T09:59:01.650Z,100208.44
2023-01-07T10:01:31.898Z,100201.22
2023-01-07T10:04:32.568Z,100203.50
2023-01-07T10:07:28.267Z,100203.97
2023-01-07T10:09:57.415Z,100195.53
2023-01-07T10:12:35.642Z,100199.38
2023-01-07T10:15:04.783Z,100190.56
2023-01-07T10:17:49.936Z,100187.13
2023-01-07T10:20:31.956Z,100188.59
2023-01-07T10:23:04.705Z,100171.72
2023-01-07T10:25:36.024Z,100167.44
2023-01-07T10:28:14.021Z,100147.78
2023-01-07T10:30:44.541Z,100143.50
2023-01-07T10:33:26.905Z,100137.22
2023-01-07T10:36:08.907Z,100136.63
2023-01-07T10:38:39.780Z,100127.16
2023-01-07T10:41:18.110Z,100127.50
2023-01-07T10:44:03.916Z,100120.63
2023-01-07T10:47:00.004Z,100126.63
2023-01-07T10:49:26.282Z,100121.63
2023-01-07T10:52:04.696Z,100126.91
2023-01-07T10:54:54.475Z,100116.81
2023-01-07T10:57:24.586Z,100109.28
2023-01-07T10:59:53.729Z,100109.75
2023-01-07T11:02:22.949Z,100102.47
2023-01-07T11:04:49.547Z,100106.25
2023-01-07T11:07:27.646Z,100107.44
2023-01-07T11:09:56.911Z,100098.84
2023-01-07T11:12:42.637Z,100097.41
2023-01-07T11:15:18.978Z,100093.78
2023-01-07T11:18:05.591Z,100090.19
2023-01-07T11:20:52.212Z,100088.88
2023-01-07T11:23:27.936Z,100075.13
2023-01-07T11:26:04.460Z,100086.06
2023-01-07T11:28:31.719Z,100078.94
2023-01-07T11:31:00.048Z,100068.28
2023-01-07T11:34:02.958Z,100055.97
2023-01-07T11:36:43.152Z,100050.88
2023-01-07T11:39:16.978Z,100044.78
2023-01-07T11:41:55.654Z,100040.75
2023-01-07T11:44:22.514Z,100034.06
2023-01-07T11:46:49.512Z,100034.31
2023-01-07T11:49:30.756Z,100027.06
2023-01-07T11:51:58.500Z,100022.03
2023-01-07T11:54:28.196Z,100022.91
2023-01-07T11:57:14.153Z,100012.56
2023-01-07T11:59:40.622Z,100009.16
2023-01-07T12:02:24.680Z,100004.56
2023-01-07T12:04:51.139Z,100007.16
2023-01-07T12:07:17.762Z,99997.09
2023-01-07T12:09:45.487Z,99990.41
2023-01-07T12:12:37.101Z,99984.22
2023-01-07T12:15:26.990Z,99969.47
2023-01-07T12:18:02.431Z,99972.31
2023-01-07T12:20:44.113Z,99971.72
2023-01-07T12:23:19.905Z,99966.00
2023-01-07T12:25:46.245Z,99962.16
2023-01-07T12:28:51.027Z,99961.97
2023-01-07T12:31:48.482Z,99956.44
2023-01-07T12:34:25.053Z,99945.47
2023-01-07T12:36:54.320Z,99943.69
2023-01-07T12:39:28.967Z,99941.13
2023-01-07T12:42:20.070Z,99937.06
2023-01-07T12:44:51.423Z,99933.22
2023-01-07T12:47:38.310Z,99935.66
2023-01-07T12:50:14.522Z,99927.53
2023-01-07T12:53:18.397Z,99929.50
2023-01-07T12:55:52.187Z,99920.09
2023-01-07T12:58:36.094Z,99920.31
2023-01-07T13:01:11.722Z,99915.91
2023-01-07T13:03:52.340Z,99912.72
2023-01-07T13:06:27.972Z,99906.59
2023-01-07T13:09:23.484Z,99915.78
2023-01-07T13:12:41.513Z,99907.28
2023-01-07T13:15:04.996Z,99911.03
2023-01-07T13:17:31.866Z,99910.63
2023-01-07T13:19:58.314Z,99904.28
2023-01-07T13:22:36.411Z,99914.22
2023-01-07T13:25:39.753Z,99912.66
2023-01-07T13:28:34.838Z,99907.03
2023-01-07T13:31:19.539Z,99894.19
2023-01-07T13:34:04.167Z,99899.38
2023-01-07T13:36:37.723Z,99890.31
2023-01-07T13:39:19.055Z,99892.53
2023-01-07T13:41:51.138Z,99893.56
2023-01-07T13:44:50.120Z,99889.03
2023-01-07T13:47:21.362Z,99884.19
2023-01-07T13:49:57.641Z,99885.28
2023-01-07T13:52:28.070Z,99878.38
2023-01-07T13:54:56.869Z,99874.22
2023-01-07T13:57:26.252Z,99886.56
2023-01-07T14:00:01.009Z,99877.63
2023-01-07T14:02:29.357Z,99883.31
2023-01-07T14:05:05.077Z,99881.00
2023-01-07T14:07:46.038Z,99873.59
2023-01-07T14:10:28.927Z,99860.94
2023-01-07T14:13:04.266Z,99869.38
2023-01-07T14:15:58.549Z,99867.13
2023-01-07T14:18:37.679Z,99865.16
2023-01-07T14:21:17.689Z,99858.31
2023-01-07T14:23:55.371Z,99849.81
2023-01-07T14:26:47.414Z,99850.69
2023-01-07T14:29:47.524Z,99845.22
2023-01-07T14:32:26.323Z,99838.84
2023-01-07T14:34:56.135Z,99844.78
2023-01-07T14:37:35.736Z,99847.72
2023-01-07T14:40:29.223Z,99839.56
2023-01-07T14:43:03.531Z,99835.66
2023-01-07T14:45:41.986Z,99835.75
2023-01-07T14:48:08.354Z,99831.78
2023-01-07T14:50:47.043Z,99826.78
2023-01-07T14:53:16.466Z,99833.19
2023-01-07T14:56:29.374Z,99837.97
2023-01-07T14:59:34.159Z,99836.78
2023-01-07T15:02:32.032Z,99841.56
2023-01-07T15:05:24.792Z,99843.84
2023-01-07T15:08:17.248Z,99846.28
2023-01-07T15:11:04.530Z,99841.56
2023-01-07T15:13:52.028Z,99842.41
2023-01-07T15:16:21.543Z,99837.38
2023-01-07T15:18:50.781Z,99835.16
2023-01-07T15:21:38.457Z,99847.38
2023-01-07T15:24:21.883Z,99848.53
2023-01-07T15:27:01.347Z,99855.97
2023-01-07T15:29:54.608Z,99859.63
2023-01-07T15:32:27.593Z,99852.88
2023-01-07T15:34:54.297Z,99849.47
2023-01-07T15:37:21.266Z,99843.63
2023-01-07T15:39:57.755Z,99838.75
2023-01-07T15:42:26.727Z,99837.03
2023-01-07T15:45:02.007Z,99833.16
2023-01-07T15:47:36.876Z,99825.78
2023-01-07T15:50:24.157Z,99830.78
2023-01-07T15:53:03.806Z,99823.72
2023-01-07T15:55:36.844Z,99819.25
2023-01-07T15:58:06.382Z,99819.25
2023-01-07T16:00:34.777Z,99823.94
2023-01-07T16:03:02.691Z,99826.78
2023-01-07T16:05:29.349Z,99814.66
2023-01-07T16:08:01.061Z,99800.75
2023-01-07T16:10:28.686Z,99809.34
2023-01-07T16:12:57.509Z,99795.47
2023-01-07T16:15:25.761Z,99791.59
2023-01-07T16:17:56.919Z,99788.56
2023-01-07T16:20:29.544Z,99786.84
2023-01-07T16:23:23.542Z,99775.84
2023-01-07T16:25:56.835Z,99779.19
2023-01-07T16:28:30.743Z,99781.69
2023-01-07T16:30:57.913Z,99774.75
2023-01-07T16:33:28.283Z,99772.41
2023-01-07T16:35:58.772Z,99773.22
2023-01-07T16:38:25.998Z,99772.97
2023-01-07T16:40:53.082Z,99771.81
2023-01-07T16:43:42.141Z,99767.44
2023-01-07T16:46:15.828Z,99765.72
2023-01-07T16:48:42.319Z,99761.66
2023-01-07T16:51:46.021Z,99763.28
2023-01-07T16:54:34.579Z,99769.06
2023-01-07T16:57:00.931Z,99765.19
2023-01-07T16:59:34.193Z,99761.97
2023-01-07T17:02:12.007Z,99754.06
2023-01-07T17:04:38.681Z,99759.63
2023-01-07T17:07:06.707Z,99755.19
2023-01-07T17:09:36.677Z,99748.84
2023-01-07T17:12:03.995Z,99749.78
2023-01-07T17:14:33.326Z,99747.19
2023-01-07T17:17:20.153Z,99745.72
2023-01-07T17:19:52.533Z,99747.41
2023-01-07T17:22:29.734Z,99742.69
2023-01-07T17:25:08.622Z,99735.63
2023-01-07T17:27:40.439Z,99734.88
2023-01-07T17:30:07.606Z,99738.47
2023-01-07T17:32:36.834Z,99740.97
2023-01-07T17:35:04.414Z,99739.34
2023-01-07T17:37:31.751Z,99735.41
2023-01-07T17:39:58.209Z,99734.38
2023-01-07T17:42:47.573Z,99731.44
2023-01-07T17:45:16.735Z,99735.25
2023-01-07T17:47:43.199Z,99735.19
2023-01-07T17:50:13.127Z,99727.84
2023-01-07T17:52:40.682Z,99722.31
2023-01-07T17:55:07.324Z,99735.31
2023-01-07T17:57:33.665Z,99726.03
2023-01-07T18:00:00.224Z,99728.13
2023-01-07T18:02:30.206Z,99725.81
2023-01-07T18:04:56.655Z,99721.50
2023-01-07T18:07:23.154Z,99719.66
2023-01-07T18:09:49.600Z,99724.03
2023-01-07T18:12:30.341Z,99729.41
2023-01-07T18:14:58.390Z,99721.06
2023-01-07T18:17:25.645Z,99718.16
2023-01-07T18:19:52.212Z,99717.59
2023-01-07T18:22:18.656Z,99710.84
2023-01-07T18:24:45.072Z,99703.91
2023-01-07T18:27:18.590Z,99703.09
2023-01-07T18:29:44.993Z,99703.00
2023-01-07T18:32:11.645Z,99700.88
2023-01-07T18:34:38.091Z,99695.28
2023-01-07T18:37:04.527Z,99691.66
2023-01-07T18:39:30.904Z,99697.88
2023-01-07T18:41:57.350Z,99699.44
2023-01-07T18:44:24.162Z,99703.50
2023-01-07T18:46:50.631Z,99701.91
2023-01-07T18:49:17.088Z,99702.13
2023-01-07T18:51:46.524Z,99693.63
2023-01-07T18:54:12.916Z,99685.28
2023-01-07T18:56:40.336Z,99683.25
2023-01-07T18:59:06.728Z,99680.22
2023-01-07T19:01:33.233Z,99672.25
2023-01-07T19:03:59.724Z,99673.00
2023-01-07T19:06:26.685Z,99664.72
2023-01-07T19:08:54.196Z,99661.13
2023-01-07T19:11:20.590Z,99663.41
2023-01-07T19:13:46.999Z,99666.63
2023-01-07T19:16:14.000Z,99666.22
2023-01-07T19:18:40.617Z,99672.44
2023-01-07T19:21:10.443Z,99666.16
2023-01-07T19:23:37.024Z,99678.50
2023-01-07T19:26:06.763Z,99684.34
2023-01-07T19:28:33.238Z,99674.72
2023-01-07T19:31:03.613Z,99676.56
2023-01-07T19:33:29.974Z,99673.66
2023-01-07T19:36:01.394Z,99675.75
2023-01-07T19:38:27.848Z,99677.88
2023-01-07T19:40:54.237Z,99665.00
2023-01-07T19:43:20.651Z,99661.06
2023-01-07T19:45:55.385Z,99669.28
2023-01-07T19:48:22.963Z,99660.16
2023-01-07T19:50:57.132Z,99657.94
2023-01-07T19:53:24.338Z,99649.66
2023-01-07T19:55:52.353Z,99650.16
2023-01-07T19:58:18.729Z,99657.25
2023-01-07T20:00:45.176Z,99661.75
2023-01-07T20:03:11.847Z,99656.47
2023-01-07T20:05:38.881Z,99660.31
2023-01-07T20:08:05.607Z,99657.63
2023-01-07T20:10:32.127Z,99668.56
2023-01-07T20:12:58.602Z,99668.47
2023-01-07T20:15:25.034Z,99665.25
2023-01-07T20:17:51.396Z,99668.75
2023-01-07T20:20:17.797Z,99674.69
2023-01-07T20:22:45.157Z,99666.47
2023-01-07T20:25:12.367Z,99664.94
2023-01-07T20:27:38.822Z,99669.13
2023-01-07T20:30:06.878Z,99667.13
2023-01-07T20:32:33.699Z,99669.81
2023-01-07T20:35:00.270Z,99666.78
2023-01-07T20:37:28.099Z,99675.84
2023-01-07T20:39:55.187Z,99667.59
2023-01-07T20:42:21.773Z,99679.53
2023-01-07T20:44:48.203Z,99668.03
2023-01-07T20:47:14.799Z,99676.16
2023-01-07T20:49:41.410Z,99667.78
2023-01-07T20:52:07.821Z,99675.63
2023-01-07T20:54:34.201Z,99671.84
2023-01-07T20:57:00.655Z,99663.63
2023-01-07T20:59:27.107Z,99659.47
2023-01-07T21:01:53.674Z,99663.25
2023-01-07T21:04:20.113Z,99662.59
2023-01-07T21:06:46.510Z,99657.31
2023-01-07T21:09:13.035Z,99655.97
2023-01-07T21:11:40.602Z,99655.22
2023-01-07T21:14:07.063Z,99657.63
2023-01-07T21:16:33.463Z,99659.13
2023-01-07T21:19:00.303Z,99647.41
2023-01-07T21:21:26.809Z,99644.38
2023-01-07T21:23:54.179Z,99636.63
2023-01-07T21:26:21.402Z,99629.25
2023-01-07T21:28:47.875Z,99632.19
2023-01-07T21:31:16.361Z,99640.75
2023-01-07T21:33:43.332Z,99640.19
2023-01-07T21:36:18.721Z,99637.56
2023-01-07T21:38:46.459Z,99637.56
2023-01-07T21:41:15.877Z,99635.06
2023-01-07T21:43:43.227Z,99627.06
2023-01-07T21:46:10.055Z,99625.44
2023-01-07T21:48:39.402Z,99619.28
2023-01-07T21:51:08.517Z,99615.75
2023-01-07T21:53:35.524Z,99627.25
2023-01-07T21:56:10.407Z,99625.03
2023-01-07T21:58:37.475Z,99621.63
2023-01-07T22:01:05.692Z,99622.13
2023-01-07T22:03:32.749Z,99627.31
2023-01-07T22:06:05.301Z,99632.50
2023-01-07T22:08:32.094Z,99624.91
2023-01-07T22:10:58.503Z,99627.16
2023-01-07T22:13:25.074Z,99628.31
2023-01-07T22:15:51.746Z,99627.31
2023-01-07T22:18:18.129Z,99630.41
2023-01-07T22:20:44.505Z,99626.47
2023-01-07T22:23:17.177Z,99630.53
2023-01-07T22:25:43.558Z,99631.56
2023-01-07T22:28:10.290Z,99624.41
2023-01-07T22:30:40.591Z,99618.72
2023-01-07T22:33:07.020Z,99625.03
2023-01-07T22:35:34.024Z,99621.31
2023-01-07T22:38:01.935Z,99623.38
2023-01-07T22:40:32.537Z,99621.44
2023-01-07T22:43:05.981Z,99624.72
2023-01-07T22:45:38.288Z,99624.91
2023-01-07T22:48:05.546Z,99621.53
2023-01-07T22:50:32.081Z,99625.88
2023-01-07T22:52:58.579Z,99626.56
2023-01-07T22:55:25.056Z,99618.09
2023-01-07T22:57:51.524Z,99618.16
2023-01-07T23:00:38.642Z,99615.41
2023-01-07T23:03:05.218Z,99603.75
2023-01-07T23:05:31.966Z,99610.38
2023-01-07T23:07:58.845Z,99605.63
2023-01-07T23:10:25.208Z,99593.44
2023-01-07T23:12:51.607Z,99583.13
2023-01-07T23:15:17.987Z,99588.56
2023-01-07T23:17:44.352Z,99579.66
2023-01-07T23:20:11.385Z,99578.50
2023-01-07T23:22:37.791Z,99580.47
2023-01-07T23:25:04.657Z,99573.47
2023-01-07T23:27:30.988Z,99566.38
2023-01-07T23:29:58.540Z,99564.78
2023-01-07T23:32:25.043Z,99553.94
2023-01-07T23:34:51.499Z,99554.44
2023-01-07T23:37:17.839Z,99549.13
2023-01-07T23:39:44.322Z,99537.63
2023-01-07T23:42:10.746Z,99528.00
2023-01-07T23:44:37.156Z,99529.47
2023-01-07T23:47:03.689Z,99532.44
2023-01-07T23:49:31.815Z,99521.34
2023-01-07T23:51:59.375Z,99510.00
2023-01-07T23:54:25.769Z,99513.88
2023-01-07T23:56:52.404Z,99505.81
2023-01-07T23:59:18.820Z,99505.97
